Time,TemperatureF,DewpointF,PressureIn,WindDirection,WindDirectionDegrees,WindSpeedMPH,WindSpeedGustMPH,Humidity,HourlyPrecipIn,Conditions,Clouds,dailyrainin,SoftwareType,DateUTC
2013-04-22 00:02:00,52.0,45.0,30.25,SE,133,2.0,-999.0,78,-99.99,,,0.00,,2013-04-22 05:02:00,
2013-04-22 00:12:00,52.0,45.0,30.25,SE,133,2.0,-999.0,78,-99.99,,,0.00,,2013-04-22 05:12:00,
2013-04-22 00:22:00,51.0,45.0,30.25,SE,133,3.0,-999.0,79,-99.99,,,0.00,,2013-04-22 05:22:00,
2013-04-22 00:32:00,51.0,45.0,30.25,SE,133,3.0,-999.0,79,-99.99,,,0.00,,2013-04-22 05:32:00,
2013-04-22 00:42:00,51.0,45.0,30.25,SE,133,3.0,-999.0,79,-99.99,,,0.00,,2013-04-22 05:42:00,
2013-04-22 00:52:00,51.0,45.0,30.25,SE,133,3.0,-999.0,79,-99.99,,,0.00,,2013-04-22 05:52:00,
2013-04-22 01:02:00,50.0,44.0,30.25,SE,133,3.0,-999.0,79,-99.99,,,0.00,,2013-04-22 06:02:00,
2013-04-22 01:12:00,50.0,44.0,30.25,SE,133,3.0,-999.0,79,-99.99,,,0.00,,2013-04-22 06:12:00,
2013-04-22 01:21:00,51.0,44.0,30.25,ESE,121,3.0,-999.0,78,-99.99,,,0.00,,2013-04-22 06:21:00,
2013-04-22 01:32:00,51.0,45.0,30.24,ESE,121,3.0,-999.0,79,-99.99,,,0.00,,2013-04-22 06:32:00,
2013-04-22 01:42:00,51.0,45.0,30.24,ESE,121,3.0,-999.0,79,-99.99,,,0.00,,2013-04-22 06:42:00,
2013-04-22 01:52:00,51.0,43.0,30.24,ESE,112,4.0,-999.0,75,-99.99,,,0.00,,2013-04-22 06:52:00,
2013-04-22 02:01:00,51.0,43.0,30.24,ESE,112,4.0,-999.0,75,-99.99,,,0.00,,2013-04-22 07:01:00,
2013-04-22 02:12:00,51.0,43.0,30.24,ESE,112,4.0,-999.0,75,-99.99,,,0.00,,2013-04-22 07:12:00,
2013-04-22 02:21:00,54.0,44.0,30.23,ESE,120,5.0,-999.0,70,-99.99,,,0.00,,2013-04-22 07:21:00,
2013-04-22 02:32:00,55.0,45.0,30.24,ESE,119,5.0,-999.0,68,-99.99,,,0.00,,2013-04-22 07:32:00,
2013-04-22 02:42:00,55.0,45.0,30.24,ESE,119,5.0,-999.0,68,-99.99,,,0.00,,2013-04-22 07:42:00,
2013-04-22 02:52:00,55.0,45.0,30.24,ESE,118,5.0,-999.0,68,-99.99,,,0.00,,2013-04-22 07:52:00,
2013-04-22 03:02:00,55.0,44.0,30.24,SE,131,5.0,-999.0,67,-99.99,,,0.00,,2013-04-22 08:02:00,
2013-04-22 03:11:00,55.0,44.0,30.24,SE,131,5.0,-999.0,67,-99.99,,,0.00,,2013-04-22 08:11:00,
2013-04-22 03:22:00,55.0,44.0,30.24,ESE,118,6.0,-999.0,67,-99.99,,,0.00,,2013-04-22 08:22:00,
2013-04-22 03:32:00,55.0,44.0,30.24,ESE,112,6.0,-999.0,67,-99.99,,,0.00,,2013-04-22 08:32:00,
2013-04-22 03:42:00,55.0,44.0,30.24,ESE,112,6.0,-999.0,67,-99.99,,,0.00,,2013-04-22 08:42:00,
2013-04-22 03:52:00,55.0,45.0,30.23,ESE,110,6.0,-999.0,68,-99.99,,,0.00,,2013-04-22 08:52:00,
2013-04-22 04:01:00,54.0,44.0,30.24,SE,125,5.0,-999.0,68,-99.99,,,0.00,,2013-04-22 09:01:00,
2013-04-22 04:11:00,54.0,44.0,30.24,SE,125,5.0,-999.0,68,-99.99,,,0.00,,2013-04-22 09:11:00,
2013-04-22 04:21:00,54.0,44.0,30.24,SE,124,4.0,-999.0,69,-99.99,,,0.00,,2013-04-22 09:21:00,
2013-04-22 04:33:00,53.0,43.0,30.24,ESE,112,3.0,-999.0,70,-99.99,,,0.00,,2013-04-22 09:33:00,
2013-04-22 04:42:00,53.0,43.0,30.24,ESE,112,3.0,-999.0,70,-99.99,,,0.00,,2013-04-22 09:42:00,
2013-04-22 04:52:00,53.0,43.0,30.24,SE,130,3.0,-999.0,70,-99.99,,,0.00,,2013-04-22 09:52:00,
2013-04-22 05:03:00,52.0,43.0,30.24,SE,130,3.0,-999.0,72,-99.99,,,0.00,,2013-04-22 10:03:00,
2013-04-22 05:12:00,52.0,43.0,30.24,SE,130,3.0,-999.0,72,-99.99,,,0.00,,2013-04-22 10:12:00,
2013-04-22 05:22:00,52.0,44.0,30.24,SE,126,3.0,-999.0,73,-99.99,,,0.00,,2013-04-22 10:22:00,
2013-04-22 05:32:00,52.0,43.0,30.25,SE,125,3.0,-999.0,71,-99.99,,,0.00,,2013-04-22 10:32:00,
2013-04-22 05:42:00,52.0,43.0,30.25,SE,125,3.0,-999.0,71,-99.99,,,0.00,,2013-04-22 10:42:00,
2013-04-22 05:52:00,52.0,43.0,30.25,ESE,121,4.0,-999.0,71,-99.99,,,0.00,,2013-04-22 10:52:00,
2013-04-22 06:02:00,52.0,43.0,30.25,ESE,112,5.0,-999.0,72,-99.99,,,0.00,,2013-04-22 11:02:00,
2013-04-22 06:12:00,53.0,44.0,30.26,ESE,120,5.0,-999.0,71,-99.99,,,0.00,,2013-04-22 11:12:00,
2013-04-22 06:22:00,53.0,44.0,30.26,ESE,120,5.0,-999.0,71,-99.99,,,0.00,,2013-04-22 11:22:00,
2013-04-22 06:32:00,53.0,43.0,30.26,ESE,112,6.0,-999.0,70,-99.99,,,0.00,,2013-04-22 11:32:00,
2013-04-22 06:42:00,53.0,43.0,30.26,ESE,112,6.0,-999.0,70,-99.99,,,0.00,,2013-04-22 11:42:00,
2013-04-22 06:52:00,54.0,44.0,30.27,SE,128,6.0,-999.0,69,-99.99,,,0.00,,2013-04-22 11:52:00,
2013-04-22 07:01:00,54.0,44.0,30.27,ESE,114,7.0,-999.0,68,-99.99,,,0.00,,2013-04-22 12:01:00,
2013-04-22 07:12:00,54.0,44.0,30.27,ESE,114,7.0,-999.0,68,-99.99,,,0.00,,2013-04-22 12:12:00,
2013-04-22 07:21:00,55.0,45.0,30.27,SE,137,9.0,-999.0,68,-99.99,,,0.00,,2013-04-22 12:21:00,
2013-04-22 07:32:00,56.0,45.0,30.27,ESE,121,9.0,-999.0,67,-99.99,,,0.00,,2013-04-22 12:32:00,
2013-04-22 07:42:00,56.0,45.0,30.27,ESE,121,9.0,-999.0,67,-99.99,,,0.00,,2013-04-22 12:42:00,
2013-04-22 07:52:00,56.0,45.0,30.27,SE,132,8.0,-999.0,67,-99.99,,,0.00,,2013-04-22 12:52:00,
2013-04-22 08:01:00,57.0,45.0,30.27,ESE,121,10.0,-999.0,65,-99.99,,,0.00,,2013-04-22 13:01:00,
2013-04-22 08:11:00,57.0,45.0,30.27,ESE,121,10.0,-999.0,65,-99.99,,,0.00,,2013-04-22 13:11:00,
2013-04-22 08:22:00,57.0,45.0,30.27,ESE,114,12.0,-999.0,65,-99.99,,,0.00,,2013-04-22 13:22:00,
2013-04-22 08:31:00,58.0,46.0,30.27,SSE,163,9.0,-999.0,64,-99.99,,,0.00,,2013-04-22 13:31:00,
2013-04-22 08:41:00,58.0,46.0,30.27,SSE,163,9.0,-999.0,64,-99.99,,,0.00,,2013-04-22 13:41:00,
2013-04-22 08:53:00,59.0,47.0,30.27,SE,141,8.0,-999.0,64,-99.99,,,0.00,,2013-04-22 13:53:00,
2013-04-22 09:02:00,59.0,47.0,30.27,ESE,112,12.0,-999.0,64,-99.99,,,0.00,,2013-04-22 14:02:00,
2013-04-22 09:11:00,60.0,47.0,30.26,East,88,12.0,-999.0,63,-99.99,,,0.00,,2013-04-22 14:11:00,
2013-04-22 09:21:00,60.0,47.0,30.26,East,88,12.0,-999.0,63,-99.99,,,0.00,,2013-04-22 14:21:00,
2013-04-22 09:33:00,60.0,47.0,30.26,SE,133,12.0,-999.0,63,-99.99,,,0.00,,2013-04-22 14:33:00,
2013-04-22 09:42:00,60.0,47.0,30.26,SE,133,12.0,-999.0,63,-99.99,,,0.00,,2013-04-22 14:42:00,
2013-04-22 09:51:00,61.0,48.0,30.26,SE,145,11.0,-999.0,63,-99.99,,,0.00,,2013-04-22 14:51:00,
2013-04-22 10:01:00,61.0,48.0,30.25,SSE,158,10.0,-999.0,63,-99.99,,,0.00,,2013-04-22 15:01:00,
2013-04-22 10:11:00,61.0,48.0,30.25,SSE,158,10.0,-999.0,63,-99.99,,,0.00,,2013-04-22 15:11:00,
2013-04-22 10:22:00,62.0,48.0,30.25,SE,131,10.0,-999.0,61,-99.99,,,0.00,,2013-04-22 15:22:00,
2013-04-22 10:33:00,63.0,50.0,30.25,SSE,149,8.0,-999.0,62,-99.99,,,0.00,,2013-04-22 15:33:00,
2013-04-22 10:43:00,63.0,50.0,30.25,SSE,149,8.0,-999.0,62,-99.99,,,0.00,,2013-04-22 15:43:00,
2013-04-22 10:53:00,64.0,50.0,30.24,South,182,8.0,-999.0,61,-99.99,,,0.00,,2013-04-22 15:53:00,
2013-04-22 11:02:00,66.0,50.0,30.24,SSE,156,7.0,-999.0,56,-99.99,,,0.00,,2013-04-22 16:02:00,
2013-04-22 11:12:00,66.0,50.0,30.24,SSE,156,7.0,-999.0,56,-99.99,,,0.00,,2013-04-22 16:12:00,
2013-04-22 11:23:00,65.0,49.0,30.24,SE,143,8.0,-999.0,56,-99.99,,,0.00,,2013-04-22 16:23:00,
2013-04-22 11:33:00,66.0,50.0,30.23,South,175,7.0,-999.0,57,-99.99,,,0.00,,2013-04-22 16:33:00,
2013-04-22 11:42:00,66.0,50.0,30.23,South,175,7.0,-999.0,57,-99.99,,,0.00,,2013-04-22 16:42:00,
2013-04-22 11:52:00,66.0,51.0,30.22,SSE,150,6.0,-999.0,59,-99.99,,,0.00,,2013-04-22 16:52:00,
2013-04-22 12:02:00,67.0,51.0,30.21,South,188,4.0,-999.0,57,-99.99,,,0.00,,2013-04-22 17:02:00,
2013-04-22 12:12:00,67.0,51.0,30.21,South,188,4.0,-999.0,57,-99.99,,,0.00,,2013-04-22 17:12:00,
2013-04-22 12:22:00,69.0,53.0,30.20,SE,124,7.0,-999.0,56,-99.99,,,0.00,,2013-04-22 17:22:00,
2013-04-22 12:32:00,69.0,52.0,30.19,East,86,9.0,-999.0,54,-99.99,,,0.00,,2013-04-22 17:32:00,
2013-04-22 12:42:00,69.0,52.0,30.19,East,86,9.0,-999.0,54,-99.99,,,0.00,,2013-04-22 17:42:00,
2013-04-22 12:52:00,68.0,50.0,30.18,ESE,104,8.0,-999.0,53,-99.99,,,0.00,,2013-04-22 17:52:00,
2013-04-22 13:01:00,69.0,50.0,30.17,ESE,113,5.0,-999.0,50,-99.99,,,0.00,,2013-04-22 18:01:00,
2013-04-22 13:12:00,69.0,50.0,30.17,ESE,113,5.0,-999.0,50,-99.99,,,0.00,,2013-04-22 18:12:00,
2013-04-22 13:21:00,69.0,52.0,30.17,SE,146,7.0,-999.0,54,-99.99,,,0.00,,2013-04-22 18:21:00,
2013-04-22 13:32:00,69.0,51.0,30.16,ESE,112,6.0,-999.0,53,-99.99,,,0.00,,2013-04-22 18:32:00,
2013-04-22 13:42:00,69.0,51.0,30.16,ESE,112,6.0,-999.0,53,-99.99,,,0.00,,2013-04-22 18:42:00,
2013-04-22 13:52:00,69.0,49.0,30.15,East,95,7.0,-999.0,49,-99.99,,,0.00,,2013-04-22 18:52:00,
2013-04-22 14:01:00,70.0,51.0,30.14,East,93,8.0,-999.0,51,-99.99,,,0.00,,2013-04-22 19:01:00,
2013-04-22 14:12:00,70.0,51.0,30.14,East,93,8.0,-999.0,51,-99.99,,,0.00,,2013-04-22 19:12:00,
2013-04-22 14:21:00,70.0,49.0,30.13,SSE,157,6.0,-999.0,47,-99.99,,,0.00,,2013-04-22 19:21:00,
2013-04-22 14:32:00,71.0,51.0,30.12,SSE,164,7.0,-999.0,50,-99.99,,,0.00,,2013-04-22 19:32:00,
2013-04-22 14:42:00,71.0,51.0,30.12,SSE,164,7.0,-999.0,50,-99.99,,,0.00,,2013-04-22 19:42:00,
2013-04-22 14:52:00,71.0,49.0,30.11,SSE,147,4.0,-999.0,45,-99.99,,,0.00,,2013-04-22 19:52:00,
2013-04-22 15:02:00,71.0,49.0,30.10,SSW,212,5.0,-999.0,46,-99.99,,,0.00,,2013-04-22 20:02:00,
2013-04-22 15:11:00,71.0,49.0,30.10,SSW,212,5.0,-999.0,46,-99.99,,,0.00,,2013-04-22 20:11:00,
2013-04-22 15:22:00,71.0,51.0,30.09,ESE,122,6.0,-999.0,49,-99.99,,,0.00,,2013-04-22 20:22:00,
2013-04-22 15:32:00,72.0,49.0,30.09,South,185,7.0,-999.0,45,-99.99,,,0.00,,2013-04-22 20:32:00,
2013-04-22 15:42:00,72.0,49.0,30.09,South,185,7.0,-999.0,45,-99.99,,,0.00,,2013-04-22 20:42:00,
2013-04-22 15:52:00,71.0,50.0,30.08,South,178,7.0,-999.0,47,-99.99,,,0.00,,2013-04-22 20:52:00,
2013-04-22 16:02:00,71.0,49.0,30.08,SE,145,5.0,-999.0,45,-99.99,,,0.00,,2013-04-22 21:02:00,
2013-04-22 16:11:00,71.0,49.0,30.08,SE,145,5.0,-999.0,45,-99.99,,,0.00,,2013-04-22 21:11:00,
2013-04-22 16:21:00,71.0,51.0,30.08,West,278,6.0,-999.0,50,-99.99,,,0.00,,2013-04-22 21:21:00,
2013-04-22 16:32:00,72.0,51.0,30.08,SE,133,6.0,-999.0,48,-99.99,,,0.00,,2013-04-22 21:32:00,
2013-04-22 16:42:00,72.0,51.0,30.08,SE,133,6.0,-999.0,48,-99.99,,,0.00,,2013-04-22 21:42:00,
2013-04-22 16:53:00,71.0,50.0,30.07,ESE,122,5.0,-999.0,48,-99.99,,,0.00,,2013-04-22 21:53:00,
2013-04-22 17:02:00,71.0,50.0,30.07,SE,140,7.0,-999.0,47,-99.99,,,0.00,,2013-04-22 22:02:00,
2013-04-22 17:12:00,71.0,50.0,30.07,SE,140,7.0,-999.0,47,-99.99,,,0.00,,2013-04-22 22:12:00,
2013-04-22 17:22:00,71.0,50.0,30.06,SSE,150,6.0,-999.0,48,-99.99,,,0.00,,2013-04-22 22:22:00,
2013-04-22 17:33:00,71.0,51.0,30.06,ESE,118,7.0,-999.0,50,-99.99,,,0.00,,2013-04-22 22:33:00,
2013-04-22 17:42:00,71.0,51.0,30.06,ESE,118,7.0,-999.0,50,-99.99,,,0.00,,2013-04-22 22:42:00,
2013-04-22 17:52:00,71.0,51.0,30.06,SE,127,7.0,-999.0,50,-99.99,,,0.00,,2013-04-22 22:52:00,
2013-04-22 18:02:00,70.0,50.0,30.06,SE,126,7.0,-999.0,50,-99.99,,,0.00,,2013-04-22 23:02:00,
2013-04-22 18:11:00,70.0,52.0,30.06,SE,140,5.0,-999.0,52,-99.99,,,0.00,,2013-04-22 23:11:00,
2013-04-22 18:21:00,70.0,52.0,30.06,SE,140,5.0,-999.0,52,-99.99,,,0.00,,2013-04-22 23:21:00,
2013-04-22 18:32:00,69.0,51.0,30.06,SE,141,5.0,-999.0,53,-99.99,,,0.00,,2013-04-22 23:32:00,
2013-04-22 18:42:00,69.0,51.0,30.06,SE,141,5.0,-999.0,53,-99.99,,,0.00,,2013-04-22 23:42:00,
2013-04-22 18:52:00,69.0,51.0,30.06,SE,129,4.0,-999.0,53,-99.99,,,0.00,,2013-04-22 23:52:00,
2013-04-22 19:02:00,69.0,52.0,30.06,ESE,123,4.0,-999.0,55,-99.99,,,0.00,,2013-04-23 00:02:00,
2013-04-22 19:12:00,69.0,52.0,30.06,ESE,123,4.0,-999.0,55,-99.99,,,0.00,,2013-04-23 00:12:00,
2013-04-22 19:21:00,68.0,51.0,30.07,SE,129,3.0,-999.0,55,-99.99,,,0.00,,2013-04-23 00:21:00,
2013-04-22 19:31:00,67.0,51.0,30.07,SE,129,2.0,-999.0,57,-99.99,,,0.00,,2013-04-23 00:31:00,
2013-04-22 19:42:00,67.0,51.0,30.07,SE,129,2.0,-999.0,57,-99.99,,,0.00,,2013-04-23 00:42:00,
2013-04-22 19:52:00,65.0,51.0,30.07,SE,129,3.0,-999.0,61,-99.99,,,0.00,,2013-04-23 00:52:00,
2013-04-22 20:01:00,63.0,51.0,30.08,ESE,119,2.0,-999.0,66,-99.99,,,0.00,,2013-04-23 01:01:00,
2013-04-22 20:11:00,63.0,51.0,30.08,ESE,119,2.0,-999.0,66,-99.99,,,0.00,,2013-04-23 01:11:00,
2013-04-22 20:21:00,62.0,51.0,30.09,WNW,296,0.0,-999.0,68,-99.99,,,0.00,,2013-04-23 01:21:00,
2013-04-22 20:32:00,61.0,52.0,30.09,SW,220,0.0,-999.0,73,-99.99,,,0.00,,2013-04-23 01:32:00,
2013-04-22 20:42:00,61.0,52.0,30.09,SW,220,0.0,-999.0,73,-99.99,,,0.00,,2013-04-23 01:42:00,
2013-04-22 20:52:00,59.0,51.0,30.10,SW,220,0.0,-999.0,75,-99.99,,,0.00,,2013-04-23 01:52:00,
2013-04-22 21:01:00,58.0,52.0,30.10,SW,220,1.0,-999.0,79,-99.99,,,0.00,,2013-04-23 02:01:00,
2013-04-22 21:12:00,58.0,52.0,30.10,SW,220,1.0,-999.0,79,-99.99,,,0.00,,2013-04-23 02:12:00,
2013-04-22 21:21:00,58.0,52.0,30.10,SW,220,2.0,-999.0,80,-99.99,,,0.00,,2013-04-23 02:21:00,
2013-04-22 21:32:00,57.0,51.0,30.11,SE,129,3.0,-999.0,81,-99.99,,,0.00,,2013-04-23 02:32:00,
2013-04-22 21:42:00,57.0,51.0,30.11,SE,129,3.0,-999.0,81,-99.99,,,0.00,,2013-04-23 02:42:00,
2013-04-22 21:52:00,57.0,51.0,30.11,SE,128,1.0,-999.0,81,-99.99,,,0.00,,2013-04-23 02:52:00,
2013-04-22 22:01:00,56.0,51.0,30.12,SE,129,0.0,-999.0,83,-99.99,,,0.00,,2013-04-23 03:01:00,
2013-04-22 22:11:00,56.0,51.0,30.12,SE,129,0.0,-999.0,83,-99.99,,,0.00,,2013-04-23 03:11:00,
2013-04-22 22:21:00,55.0,51.0,30.13,SE,129,0.0,-999.0,85,-99.99,,,0.00,,2013-04-23 03:21:00,
2013-04-22 22:33:00,55.0,51.0,30.12,SE,129,0.0,-999.0,85,-99.99,,,0.00,,2013-04-23 03:33:00,
2013-04-22 22:43:00,55.0,51.0,30.12,SE,129,0.0,-999.0,85,-99.99,,,0.00,,2013-04-23 03:43:00,
2013-04-22 22:53:00,55.0,51.0,30.12,SE,129,1.0,-999.0,86,-99.99,,,0.00,,2013-04-23 03:53:00,
2013-04-22 23:03:00,54.0,50.0,30.11,SE,129,2.0,-999.0,86,-99.99,,,0.00,,2013-04-23 04:03:00,
2013-04-22 23:12:00,54.0,50.0,30.11,SE,129,2.0,-999.0,86,-99.99,,,0.00,,2013-04-23 04:12:00,
2013-04-22 23:23:00,54.0,50.0,30.11,SE,125,2.0,-999.0,86,-99.99,,,0.00,,2013-04-23 04:23:00,
2013-04-22 23:33:00,54.0,50.0,30.11,SE,125,3.0,-999.0,86,-99.99,,,0.00,,2013-04-23 04:33:00,
2013-04-22 23:43:00,54.0,50.0,30.11,SE,125,3.0,-999.0,86,-99.99,,,0.00,,2013-04-23 04:43:00,
2013-04-22 23:52:00,55.0,51.0,30.11,SE,125,2.0,-999.0,86,-99.99,,,0.00,,2013-04-23 04:52:00,